KALI

Alice International Airport

Alice, Texas, USA
METAR KALI 151953Z AUTO 16008G20KT 10SM CLR 35/21 A2998 RMK AO2 SLP148 T03500211
Observed Flight Rules
Jul-15 @ 19:53 UTC (an hour ago) Visual Flight Rules
Wind Visibility Clouds
160° at 8 knots
 Gusting to 20 knots
10 miles
  • Clear skies
Temperatures Readings
Current 35°C / 95°F
Dewpoint 21°C / 70°F
Humidity 44%
Altimeter 29.98" Hg
Pressure 1014.8 hPa
Elevation 53
METAR KALI 151953Z AUTO 16008G20KT 10SM CLR 35/21 A2998 RMK AO2 SLP148 T03500211
Observed Flight Rules
Jul-15 @ 19:53 UTC
(an hour ago)
VFR
Wind Visibility
160° at 8 knots
 Gusting to 20 knots
10 miles
Clouds
  • Clear skies
Temperature Dewpoint
35°C / 95°F 21°C / 70°F
Humidity Altimeter Pressure
44% 29.98" Hg 1014.8 hPa